Withernsea, United Kingdom
Current Conditions -  °F | °C
As of 7:50 PM on Thursday 29 Jan 2015 (Local Time) from EGXS Reporting Station
Scattered Clouds Scattered Clouds  
Wind Chill: 24°   Ceiling: Unl
Heat Index: 30°   Visibility: 6mi
Dew Point: 28°   Wind: 6mph
Humidity: 93%   Direction: 250°WSW
Pressure: 28.76"   Gusts: NA
Location:  53.73°N, 0.03°E
Report Text: EGXS 291950Z AUTO 25005KT 9999 // SCT180/// M01/M02 Q0974
Loading
Personal Weather Stations






























Interactive Weather Map New forecast layout! Learn more

10-Day Weather Forecast

Advertisements
Track Severe Weather on mobile